Time;durP1;ratioP1;P1;durP2;ratioP2;P2;SDS_P1;SDS_P2;PMS_P1;PMS_P2;Temp;Humidity;BMP_temperature;BMP_pressure;BME280_temperature;BME280_humidity;BME280_pressure;Samples;Min_cycle;Max_cycle;Signal;HPM_P1;HPM_P2
2022/12/11 00:00:49;;;;;;;52.87;24.87;;;;;;;0.32;100.00;147526.72;5024771;28;20124;-71
2022/12/11 00:03:17;;;;;;;58.93;24.93;;;;;;;0.33;100.00;147529.28;5024571;28;20025;-70
2022/12/11 00:05:44;;;;;;;58.70;24.63;;;;;;;0.33;100.00;147529.28;5024406;28;20132;-70
2022/12/11 00:08:11;;;;;;;58.53;25.63;;;;;;;0.36;100.00;147536.97;5028821;28;20068;-71
2022/12/11 00:10:36;;;;;;;57.57;25.00;;;;;;;0.35;100.00;147534.41;5030954;28;20056;-71
2022/12/11 00:13:02;;;;;;;55.73;24.70;;;;;;;0.38;100.00;147542.13;5041006;28;20025;-70
2022/12/11 00:15:28;;;;;;;57.17;26.17;;;;;;;0.38;100.00;147542.13;5034853;28;20397;-70
2022/12/11 00:17:53;;;;;;;57.33;23.73;;;;;;;0.37;100.00;147539.56;5030400;28;20028;-70
2022/12/11 00:20:19;;;;;;;57.13;24.50;;;;;;;0.40;100.00;147547.25;5024748;28;20099;-70
2022/12/11 00:22:44;;;;;;;60.23;25.47;;;;;;;0.36;100.00;147536.97;5024301;28;20505;-70
2022/12/11 00:25:10;;;;;;;50.97;22.20;;;;;;;0.43;100.00;147554.97;5021965;28;20040;-70
2022/12/11 00:27:35;;;;;;;38.47;15.93;;;;;;;0.45;100.00;147560.09;5038982;28;20017;-70
2022/12/11 00:30:00;;;;;;;49.93;22.47;;;;;;;0.47;100.00;147565.22;5036029;28;20028;-70
2022/12/11 00:32:26;;;;;;;59.93;24.67;;;;;;;0.46;100.00;147562.66;5035728;28;20032;-70
2022/12/11 00:34:52;;;;;;;57.40;25.27;;;;;;;0.41;100.00;147548.53;5023791;28;20048;-70
2022/12/11 00:37:17;;;;;;;60.37;25.30;;;;;;;0.40;100.00;147547.25;5030184;28;20033;-70
2022/12/11 00:39:43;;;;;;;63.83;26.33;;;;;;;0.40;100.00;147545.97;5024844;28;20110;-70
2022/12/11 00:42:08;;;;;;;55.97;23.50;;;;;;;0.40;100.00;147545.97;5025164;28;20029;-70
2022/12/11 00:44:34;;;;;;;56.63;25.17;;;;;;;0.41;100.00;147548.53;5027400;28;20136;-70
2022/12/11 00:46:59;;;;;;;57.13;25.60;;;;;;;0.36;100.00;147536.97;5036647;28;20504;-70
2022/12/11 00:49:25;;;;;;;57.03;23.77;;;;;;;0.38;100.00;147542.13;5031925;28;20021;-70
2022/12/11 00:51:50;;;;;;;62.13;27.80;;;;;;;0.33;100.00;147529.28;5032179;28;20536;-70
2022/12/11 00:54:15;;;;;;;61.97;25.67;;;;;;;0.36;100.00;147536.97;5028019;28;20428;-70
2022/12/11 00:56:41;;;;;;;66.10;28.57;;;;;;;0.36;100.00;147536.97;5030086;28;20116;-70
2022/12/11 00:59:07;;;;;;;66.20;27.53;;;;;;;0.38;100.00;147540.84;5035525;28;20030;-70
2022/12/11 01:01:32;;;;;;;63.97;26.80;;;;;;;0.36;100.00;147535.69;5039236;28;20440;-70
2022/12/11 01:03:57;;;;;;;62.87;27.67;;;;;;;0.32;100.00;147526.72;5025107;28;20108;-70
2022/12/11 01:06:25;;;;;;;64.60;28.90;;;;;;;0.33;100.00;147529.28;5019379;28;20140;-70
2022/12/11 01:11:35;;;;;;;67.63;28.50;;;;;;;0.26;100.00;147512.63;5028899;28;20132;-70
2022/12/11 01:14:00;;;;;;;67.87;27.80;;;;;;;0.27;100.00;147515.19;5012999;28;20471;-71
2022/12/11 01:16:25;;;;;;;67.97;28.40;;;;;;;0.27;100.00;147515.19;5033817;28;20025;-71
2022/12/11 01:18:51;;;;;;;65.83;28.80;;;;;;;0.28;100.00;147516.47;5027125;28;20392;-71
2022/12/11 01:21:16;;;;;;;66.53;28.53;;;;;;;0.29;100.00;147519.03;5044818;28;20044;-71
2022/12/11 01:23:42;;;;;;;63.17;28.30;;;;;;;0.30;100.00;147521.59;5028365;28;20033;-70
2022/12/11 01:26:13;;;;;;;71.43;28.53;;;;;;;0.29;100.00;147519.03;5028934;28;20472;-70
2022/12/11 01:28:39;;;;;;;65.85;27.73;;;;;;;0.30;100.00;147521.59;5029578;28;20026;-71
2022/12/11 01:31:13;;;;;;;68.93;29.73;;;;;;;0.31;100.00;147522.88;5041976;28;20076;-71
2022/12/11 01:33:38;;;;;;;74.00;29.23;;;;;;;0.27;100.00;147515.19;5027465;28;20060;-71
2022/12/11 01:36:13;;;;;;;69.37;28.50;;;;;;;0.27;100.00;147513.91;5027059;28;20462;-70
2022/12/11 01:38:38;;;;;;;66.93;28.60;;;;;;;0.31;100.00;147522.88;5036276;28;20079;-71
2022/12/11 01:41:04;;;;;;;68.17;28.57;;;;;;;0.30;100.00;147521.59;5039459;28;20036;-70
2022/12/11 01:43:29;;;;;;;69.83;28.57;;;;;;;0.31;100.00;147524.16;5026437;28;20029;-71
2022/12/11 01:45:54;;;;;;;70.13;29.70;;;;;;;0.30;100.00;147521.59;5023606;28;20519;-71
2022/12/11 01:48:24;;;;;;;68.43;28.70;;;;;;;0.23;100.00;147504.88;5028737;28;20041;-71
2022/12/11 01:50:54;;;;;;;72.53;29.93;;;;;;;0.28;100.00;147517.75;5031234;28;20037;-70
2022/12/11 01:53:25;;;;;;;94.60;31.37;;;;;;;0.30;100.00;147521.59;5042329;28;20489;-71
2022/12/11 01:55:54;;;;;;;82.13;31.33;;;;;;;0.31;100.00;147524.16;5026180;28;20025;-71
2022/12/11 01:58:25;;;;;;;93.37;30.93;;;;;;;0.36;100.00;147536.97;5017095;28;20080;-70
2022/12/11 02:00:52;;;;;;;97.30;30.85;;;;;;;0.35;100.00;147534.41;5017180;28;20029;-70
2022/12/11 02:03:18;;;;;;;78.93;30.67;;;;;;;0.42;100.00;147551.09;5026373;22;20340;-63
2022/12/11 02:05:44;;;;;;;91.27;31.77;;;;;;;0.42;100.00;147551.09;5003407;28;20037;-64
2022/12/11 02:08:09;;;;;;;91.57;31.07;;;;;;;0.39;100.00;147543.41;5010824;28;20021;-64
2022/12/11 02:11:03;;;;;;;90.67;30.20;;;;;;;0.41;100.00;147549.81;5009628;28;20064;-64
2022/12/11 02:13:37;;;;;;;85.80;30.43;;;;;;;0.38;100.00;147542.13;5018634;28;20108;-63
2022/12/11 02:16:16;;;;;;;94.23;30.50;;;;;;;0.39;100.00;147544.69;5011610;28;20025;-63
2022/12/11 02:18:51;;;;;;;98.73;30.10;;;;;;;0.45;100.00;147560.09;5007783;28;20042;-63
2022/12/11 02:21:24;;;;;;;86.47;30.73;;;;;;;0.43;100.00;147554.97;5020664;28;20064;-63
2022/12/11 02:24:23;;;;;;;99.03;32.03;;;;;;;0.41;100.00;147548.53;5026503;28;20067;-63
2022/12/11 02:27:00;;;;;;;83.70;28.87;;;;;;;0.41;100.00;147549.81;5011410;28;20037;-63
2022/12/11 02:29:38;;;;;;;95.70;31.67;;;;;;;0.41;100.00;147549.81;4998733;28;20037;-63
2022/12/11 02:32:12;;;;;;;102.60;32.30;;;;;;;0.38;100.00;147542.13;5011268;28;20033;-64
2022/12/11 02:34:52;;;;;;;98.70;30.53;;;;;;;0.40;100.00;147547.25;5012541;28;20029;-63
2022/12/11 02:37:21;;;;;;;96.80;32.33;;;;;;;0.41;100.00;147549.81;5014292;28;20034;-63
2022/12/11 02:39:50;;;;;;;85.97;28.93;;;;;;;0.42;100.00;147552.38;5011187;28;20037;-63
2022/12/11 02:42:18;;;;;;;95.23;32.37;;;;;;;0.42;100.00;147551.09;5009847;28;20409;-63
2022/12/11 02:44:47;;;;;;;98.97;31.17;;;;;;;0.41;100.00;147548.53;5008324;28;20064;-63
2022/12/11 02:47:14;;;;;;;100.47;32.77;;;;;;;0.42;100.00;147552.38;5006527;28;20029;-64
2022/12/11 02:49:43;;;;;;;96.13;31.83;;;;;;;0.39;100.00;147544.69;5012423;28;20030;-63
2022/12/11 02:52:11;;;;;;;102.00;32.93;;;;;;;0.41;100.00;147548.53;5011441;28;20040;-63
2022/12/11 02:54:40;;;;;;;98.37;32.37;;;;;;;0.46;100.00;147562.66;5006720;28;20030;-63
2022/12/11 02:57:13;;;;;;;91.50;31.63;;;;;;;0.44;100.00;147557.53;5003205;28;20536;-63
2022/12/11 02:59:41;;;;;;;97.87;32.40;;;;;;;0.41;100.00;147549.81;5007479;28;20034;-63
2022/12/11 03:02:07;;;;;;;103.07;32.27;;;;;;;0.40;100.00;147547.25;5003973;28;20120;-63
2022/12/11 03:04:35;;;;;;;101.13;32.63;;;;;;;0.39;100.00;147544.69;5016482;28;20045;-63
2022/12/11 03:07:12;;;;;;;86.20;31.60;;;;;;;0.40;100.00;147547.25;5019951;28;20091;-63
2022/12/11 03:09:42;;;;;;;85.23;31.17;;;;;;;0.39;100.00;147544.69;5028339;28;20040;-63
2022/12/11 03:12:10;;;;;;;87.67;31.50;;;;;;;0.41;100.00;147549.81;5022833;28;20025;-63
2022/12/11 03:14:38;;;;;;;89.93;31.97;;;;;;;0.36;100.00;147536.97;5021404;28;20025;-63
2022/12/11 03:17:11;;;;;;;73.70;28.77;;;;;;;0.40;100.00;147547.25;5022820;28;20440;-63
2022/12/11 03:19:43;;;;;;;78.67;28.87;;;;;;;0.33;100.00;147529.28;5016651;28;20469;-63
2022/12/11 03:22:25;;;;;;;83.17;30.87;;;;;;;0.27;100.00;147513.91;5018200;28;20075;-63
2022/12/11 03:25:02;;;;;;;113.50;33.27;;;;;;;0.24;100.00;147507.50;5019030;28;21486;-63
2022/12/11 03:27:55;;;;;;;160.43;35.70;;;;;;;0.18;100.00;147490.78;5030178;28;20029;-63
2022/12/11 03:30:22;;;;;;;147.37;34.47;;;;;;;0.23;100.00;147504.88;5017035;28;20519;-63
2022/12/11 03:32:52;;;;;;;153.67;34.70;;;;;;;0.19;100.00;147493.34;5022808;28;20092;-63
2022/12/11 03:35:30;;;;;;;146.17;34.53;;;;;;;0.16;100.00;147485.66;5019668;28;20484;-63
2022/12/11 03:37:59;;;;;;;148.90;34.27;;;;;;;0.10;100.00;147471.53;5023326;28;20033;-63
2022/12/11 03:40:29;;;;;;;146.03;34.57;;;;;;;0.15;100.00;147483.09;5031155;28;20025;-63
2022/12/11 03:42:56;;;;;;;138.93;31.97;;;;;;;0.07;100.00;147462.56;5032993;28;20132;-63
2022/12/11 03:45:23;;;;;;;137.07;33.30;;;;;;;0.05;100.00;147457.44;5032094;28;20049;-63
2022/12/11 03:47:51;;;;;;;152.57;32.03;;;;;;;0.01;100.00;147447.19;5029959;28;20052;-63
2022/12/11 03:50:19;;;;;;;154.90;34.17;;;;;;;0.02;100.00;147451.03;5028406;28;20076;-63
2022/12/11 03:52:46;;;;;;;135.63;30.90;;;;;;;0.04;100.00;147454.88;5030732;28;20037;-64
2022/12/11 03:55:14;;;;;;;139.30;33.07;;;;;;;0.09;100.00;147467.69;5027796;28;20029;-63
2022/12/11 03:57:40;;;;;;;147.13;32.73;;;;;;;-0.01;100.00;147444.56;5031124;28;20044;-60
2022/12/11 04:00:12;;;;;;;158.20;31.43;;;;;;;0.04;100.00;147456.16;5029225;28;20183;-63
2022/12/11 04:02:38;;;;;;;144.77;32.60;;;;;;;0.01;100.00;147447.19;5031536;28;20021;-63
2022/12/11 04:05:04;;;;;;;141.80;30.80;;;;;;;-0.01;100.00;147444.56;5030034;28;20051;-63
2022/12/11 04:07:30;;;;;;;145.77;33.00;;;;;;;0.05;100.00;147457.44;5028043;28;20037;-63
2022/12/11 04:09:55;;;;;;;158.23;34.10;;;;;;;0.07;100.00;147463.84;5029582;28;20029;-63
2022/12/11 04:12:21;;;;;;;149.33;31.90;;;;;;;0.01;100.00;147447.19;5027570;28;20041;-63
2022/12/11 04:15:01;;;;;;;155.30;33.53;;;;;;;0.02;100.00;147449.75;5029020;28;20072;-63
2022/12/11 04:25:40;;;;;;;137.43;31.87;;;;;;;0.04;100.00;147456.16;5027391;28;20041;-63
2022/12/11 04:28:05;;;;;;;154.83;33.77;;;;;;;0.05;100.00;147457.44;5030293;28;20224;-63
2022/12/11 04:30:31;;;;;;;162.60;33.77;;;;;;;0.07;100.00;147462.56;5030309;28;20025;-63
2022/12/11 04:32:56;;;;;;;144.93;31.80;;;;;;;-0.06;100.00;147431.75;5029175;28;20458;-63
2022/12/11 04:35:22;;;;;;;141.30;29.83;;;;;;;-0.05;100.00;147434.31;5031118;28;20021;-63
2022/12/11 04:37:47;;;;;;;134.27;29.43;;;;;;;-0.06;100.00;147431.75;5029898;28;20464;-63
2022/12/11 04:40:15;;;;;;;138.70;30.77;;;;;;;-0.07;100.00;147429.19;5029519;28;20087;-63
2022/12/11 04:42:40;;;;;;;114.77;27.17;;;;;;;-0.07;100.00;147429.19;5027955;28;20039;-63
2022/12/11 04:45:07;;;;;;;123.80;27.70;;;;;;;-0.07;100.00;147429.19;5029690;28;20029;-63
2022/12/11 04:47:37;;;;;;;111.83;24.27;;;;;;;-0.14;100.00;147411.22;5030098;28;20036;-63
2022/12/11 04:50:05;;;;;;;128.87;26.43;;;;;;;-0.15;100.00;147408.66;5029726;28;20033;-63
2022/12/11 04:52:30;;;;;;;137.63;29.67;;;;;;;-0.07;100.00;147427.94;5029742;28;20033;-63
2022/12/11 04:54:55;;;;;;;119.67;25.97;;;;;;;-0.15;100.00;147408.66;5026017;28;20036;-63
2022/12/11 04:57:21;;;;;;;118.10;25.07;;;;;;;-0.21;100.00;147393.28;5030705;28;20022;-63
2022/12/11 04:59:47;;;;;;;123.73;26.50;;;;;;;-0.19;100.00;147397.13;5028712;28;20068;-63
2022/12/11 05:02:13;;;;;;;133.93;26.80;;;;;;;-0.16;100.00;147406.09;5027578;28;20021;-63
2022/12/11 05:04:38;;;;;;;128.00;28.50;;;;;;;-0.19;100.00;147397.13;5028116;28;20087;-63
2022/12/11 05:07:03;;;;;;;123.23;25.47;;;;;;;-0.25;100.00;147383.00;5028779;28;20448;-63
2022/12/11 05:09:29;;;;;;;125.67;26.47;;;;;;;-0.24;100.00;147385.59;5027839;28;20057;-63
2022/12/11 05:11:55;;;;;;;113.67;24.63;;;;;;;-0.30;100.00;147371.47;5029709;28;20033;-63
2022/12/11 05:14:20;;;;;;;117.87;25.40;;;;;;;-0.28;100.00;147374.03;5030363;28;20029;-64
2022/12/11 05:16:46;;;;;;;132.23;27.07;;;;;;;-0.23;100.00;147388.16;5027516;28;20045;-64
2022/12/11 05:19:11;;;;;;;121.73;27.03;;;;;;;-0.21;100.00;147393.28;5013032;28;20057;-64
2022/12/11 05:21:36;;;;;;;120.07;27.60;;;;;;;-0.15;100.00;147408.66;5023544;28;20469;-63
2022/12/11 05:24:02;;;;;;;119.80;26.90;;;;;;;-0.07;100.00;147429.19;5029728;28;20034;-63
2022/12/11 05:26:28;;;;;;;120.80;26.50;;;;;;;-0.15;100.00;147408.66;5033488;28;20108;-63
2022/12/11 05:28:53;;;;;;;126.77;28.50;;;;;;;-0.20;100.00;147394.56;5032046;28;20465;-63
2022/12/11 05:31:22;;;;;;;110.50;22.40;;;;;;;-0.33;100.00;147362.50;5024051;28;20442;-63
2022/12/11 05:33:49;;;;;;;102.23;22.30;;;;;;;-0.32;100.00;147365.06;5033438;28;20025;-63
2022/12/11 05:36:26;;;;;;;96.40;22.10;;;;;;;-0.32;100.00;147366.34;5032353;28;20036;-64
2022/12/11 05:38:52;;;;;;;98.33;22.37;;;;;;;-0.32;100.00;147366.34;5017936;28;20370;-63
2022/12/11 05:41:20;;;;;;;94.90;21.50;;;;;;;-0.34;100.00;147359.94;5033356;28;20116;-63
2022/12/11 05:43:46;;;;;;;108.80;22.80;;;;;;;-0.27;100.00;147376.59;5030365;28;20037;-63
2022/12/11 05:46:15;;;;;;;88.63;19.53;;;;;;;-0.33;100.00;147363.78;5032847;28;20358;-63
2022/12/11 05:48:42;;;;;;;94.73;19.63;;;;;;;-0.41;100.00;147343.25;5029932;28;20132;-64
2022/12/11 05:51:09;;;;;;;81.63;17.67;;;;;;;-0.34;100.00;147359.94;5033775;28;20044;-64
2022/12/11 05:53:36;;;;;;;89.50;19.57;;;;;;;-0.33;100.00;147362.50;5030913;28;20082;-64
2022/12/11 05:56:11;;;;;;;86.90;19.00;;;;;;;-0.29;100.00;147372.75;5031366;28;20032;-64
2022/12/11 05:58:37;;;;;;;91.33;19.20;;;;;;;-0.26;100.00;147379.16;5030873;28;20040;-64
2022/12/11 06:01:06;;;;;;;86.63;18.77;;;;;;;-0.38;100.00;147350.94;5031895;28;20416;-63
2022/12/11 06:03:32;;;;;;;84.13;20.27;;;;;;;-0.47;100.00;147326.59;5032371;28;20084;-63
2022/12/11 06:06:01;;;;;;;85.73;20.70;;;;;;;-0.44;100.00;147334.28;5033846;28;20041;-64
2022/12/11 06:08:27;;;;;;;96.27;20.40;;;;;;;-0.46;100.00;147329.19;5031417;28;20037;-63
2022/12/11 06:10:52;;;;;;;82.03;19.40;;;;;;;-0.40;100.00;147345.81;5026655;28;20026;-63
2022/12/11 06:13:17;;;;;;;86.97;20.30;;;;;;;-0.36;100.00;147354.84;5030756;28;20037;-63
2022/12/11 06:15:43;;;;;;;87.77;21.30;;;;;;;-0.27;100.00;147377.88;5032819;28;20160;-63
2022/12/11 06:18:08;;;;;;;90.60;21.63;;;;;;;-0.29;100.00;147372.75;5033429;28;20053;-63
2022/12/11 06:20:34;;;;;;;88.17;22.00;;;;;;;-0.27;100.00;147377.88;5033449;28;20025;-64
2022/12/11 06:23:00;;;;;;;93.07;22.73;;;;;;;-0.24;100.00;147385.59;5029601;28;20076;-64
2022/12/11 06:25:26;;;;;;;85.33;20.33;;;;;;;-0.24;100.00;147384.28;5030343;28;20060;-64
2022/12/11 06:27:51;;;;;;;81.97;18.37;;;;;;;-0.30;100.00;147371.47;5022864;28;20029;-64
2022/12/11 06:30:16;;;;;;;74.03;18.00;;;;;;;-0.25;100.00;147381.72;5030202;28;20030;-64
2022/12/11 06:32:42;;;;;;;74.63;16.83;;;;;;;-0.37;100.00;147352.22;5030660;28;20096;-64
2022/12/11 06:35:08;;;;;;;74.30;17.23;;;;;;;-0.43;100.00;147338.13;5031700;28;20022;-63
2022/12/11 06:37:35;;;;;;;85.67;18.57;;;;;;;-0.45;100.00;147333.00;5031145;28;20370;-64
2022/12/11 06:40:02;;;;;;;81.60;18.33;;;;;;;-0.48;100.00;147325.31;5033717;28;20057;-64
2022/12/11 06:42:31;;;;;;;80.73;18.87;;;;;;;-0.43;100.00;147338.13;5031561;28;20037;-64
2022/12/11 06:44:58;;;;;;;86.23;17.93;;;;;;;-0.39;100.00;147347.09;5030275;28;20038;-64
2022/12/11 06:47:25;;;;;;;74.60;19.03;;;;;;;-0.42;100.00;147339.41;5031657;28;20037;-66
2022/12/11 06:49:51;;;;;;;79.30;18.43;;;;;;;-0.42;100.00;147339.41;5030942;28;20039;-63
2022/12/11 06:52:16;;;;;;;86.60;18.87;;;;;;;-0.43;100.00;147336.84;5033251;28;20041;-64
2022/12/11 06:54:41;;;;;;;85.37;19.00;;;;;;;-0.41;100.00;147341.97;5032442;28;20061;-63
2022/12/11 06:57:09;;;;;;;82.50;18.67;;;;;;;-0.46;100.00;147330.47;5032810;28;20064;-63
2022/12/11 06:59:34;;;;;;;98.10;19.03;;;;;;;-0.37;100.00;147352.22;5029278;28;20087;-64
2022/12/11 07:01:59;;;;;;;89.30;18.23;;;;;;;-0.37;100.00;147352.22;5033043;28;20311;-63
2022/12/11 07:04:26;;;;;;;89.50;18.97;;;;;;;-0.37;100.00;147352.22;5029050;28;20033;-63
2022/12/11 07:06:52;;;;;;;83.77;18.13;;;;;;;-0.34;100.00;147359.94;5033977;28;20397;-63
2022/12/11 07:09:18;;;;;;;80.20;17.63;;;;;;;-0.40;100.00;147344.53;5032766;28;20044;-63
2022/12/11 07:11:43;;;;;;;69.20;15.77;;;;;;;-0.51;100.00;147316.31;5031852;28;20033;-64
2022/12/11 07:14:08;;;;;;;82.87;17.83;;;;;;;-0.46;100.00;147329.19;5031240;28;20619;-64
2022/12/11 07:16:34;;;;;;;68.87;15.33;;;;;;;-0.52;100.00;147315.03;5029576;28;20052;-63
2022/12/11 07:18:59;;;;;;;80.20;17.37;;;;;;;-0.43;100.00;147336.84;5029490;28;20063;-64
2022/12/11 07:21:24;;;;;;;58.20;15.63;;;;;;;-0.48;100.00;147324.06;5027731;28;20112;-63
2022/12/11 07:23:50;;;;;;;70.77;15.97;;;;;;;-0.44;100.00;147334.28;5023784;28;20030;-63
2022/12/11 07:26:19;;;;;;;59.50;14.30;;;;;;;-0.51;100.00;147316.31;5022241;28;20705;-63
2022/12/11 07:28:45;;;;;;;58.70;14.43;;;;;;;-0.34;100.00;147359.94;5025167;28;20030;-63
2022/12/11 07:31:13;;;;;;;59.83;14.70;;;;;;;-0.28;100.00;147375.31;5025091;28;20037;-63
2022/12/11 07:33:40;;;;;;;53.97;15.20;;;;;;;-0.31;100.00;147368.91;5024933;28;20499;-63
2022/12/11 07:36:08;;;;;;;54.50;14.57;;;;;;;-0.44;100.00;147334.28;5023109;28;20080;-63
2022/12/11 07:38:33;;;;;;;59.23;16.47;;;;;;;-0.40;100.00;147344.53;5024777;28;20033;-63
2022/12/11 07:41:04;;;;;;;66.17;15.87;;;;;;;-0.44;100.00;147334.28;5024572;28;20031;-63
2022/12/11 07:43:29;;;;;;;67.50;17.60;;;;;;;-0.36;100.00;147354.84;5025123;28;20021;-63
2022/12/11 07:46:10;;;;;;;70.77;16.60;;;;;;;-0.37;100.00;147353.50;5022675;28;20025;-63
2022/12/11 07:48:39;;;;;;;64.73;17.13;;;;;;;-0.50;100.00;147318.88;5023612;28;20056;-64
2022/12/11 07:51:07;;;;;;;67.33;17.53;;;;;;;-0.38;100.00;147350.94;5024118;28;20037;-63
2022/12/11 07:53:33;;;;;;;66.43;17.63;;;;;;;-0.40;100.00;147345.81;5024626;28;20033;-63
2022/12/11 07:55:58;;;;;;;66.23;17.57;;;;;;;-0.50;100.00;147318.88;5022064;28;20495;-63
2022/12/11 07:58:24;;;;;;;56.97;16.17;;;;;;;-0.56;100.00;147303.50;5024758;28;20033;-63
2022/12/11 08:00:49;;;;;;;57.60;15.37;;;;;;;-0.49;100.00;147321.44;5023613;28;20044;-63
2022/12/11 08:03:14;;;;;;;55.57;14.73;;;;;;;-0.48;100.00;147324.06;5021811;28;20484;-63
2022/12/11 08:05:47;;;;;;;59.10;15.67;;;;;;;-0.43;100.00;147336.84;5027802;28;20071;-63
2022/12/11 08:08:13;;;;;;;54.70;16.17;;;;;;;-0.38;100.00;147349.66;5025635;28;20484;-63
2022/12/11 08:10:38;;;;;;;58.50;15.50;;;;;;;-0.38;100.00;147349.66;5024714;28;20029;-64
2022/12/11 08:13:03;;;;;;;60.10;15.97;;;;;;;-0.47;100.00;147326.59;5025209;28;20071;-63
2022/12/11 08:15:29;;;;;;;65.07;17.60;;;;;;;-0.32;100.00;147366.34;5024520;28;20036;-63
2022/12/11 08:17:54;;;;;;;61.07;16.23;;;;;;;-0.31;100.00;147367.63;5025524;28;20036;-63
2022/12/11 08:20:20;;;;;;;58.50;15.57;;;;;;;-0.34;100.00;147359.94;5023035;28;20041;-63
2022/12/11 08:22:45;;;;;;;65.00;15.60;;;;;;;-0.32;100.00;147365.06;5024741;28;20432;-64
2022/12/11 08:25:10;;;;;;;64.57;18.27;;;;;;;-0.27;100.00;147376.59;5025813;28;20071;-63
2022/12/11 08:27:36;;;;;;;53.17;16.17;;;;;;;-0.27;100.00;147376.59;5025198;28;20091;-63
2022/12/11 08:30:01;;;;;;;60.93;15.93;;;;;;;-0.42;100.00;147339.41;5023749;28;20489;-64
2022/12/11 08:32:26;;;;;;;60.27;17.13;;;;;;;-0.44;100.00;147334.28;5024151;28;20029;-64
2022/12/11 08:34:52;;;;;;;57.00;15.60;;;;;;;-0.33;100.00;147362.50;5025922;28;20033;-63
2022/12/11 08:37:17;;;;;;;55.50;15.17;;;;;;;-0.29;100.00;147372.75;5023567;28;20112;-63
2022/12/11 08:39:43;;;;;;;56.07;15.50;;;;;;;-0.23;100.00;147388.16;5024396;28;20029;-63
2022/12/11 08:42:09;;;;;;;47.93;13.83;;;;;;;-0.27;100.00;147376.59;5024150;28;20037;-63
2022/12/11 08:44:34;;;;;;;49.70;13.13;;;;;;;-0.33;100.00;147362.50;5024046;28;20457;-63
2022/12/11 08:46:59;;;;;;;41.67;13.23;;;;;;;-0.33;100.00;147362.50;5024256;28;20031;-63
2022/12/11 08:49:25;;;;;;;45.40;13.13;;;;;;;-0.31;100.00;147367.63;5024256;28;20029;-63
2022/12/11 08:51:50;;;;;;;49.03;13.37;;;;;;;-0.31;100.00;147367.63;5024722;28;20124;-63
2022/12/11 08:54:15;;;;;;;44.57;13.50;;;;;;;-0.28;100.00;147374.03;5022183;28;20051;-63
2022/12/11 08:56:41;;;;;;;40.73;12.80;;;;;;;-0.32;100.00;147365.06;5024966;28;20116;-63
2022/12/11 08:59:06;;;;;;;38.43;12.57;;;;;;;-0.15;100.00;147408.66;5024117;28;20044;-63
2022/12/11 09:01:32;;;;;;;34.23;10.73;;;;;;;-0.09;100.00;147424.09;5023217;28;20022;-63
2022/12/11 09:03:58;;;;;;;39.43;12.53;;;;;;;-0.07;100.00;147429.19;5023956;28;20377;-63
2022/12/11 09:06:25;;;;;;;36.97;11.73;;;;;;;-0.11;100.00;147418.97;5023185;28;20041;-63
2022/12/11 09:08:51;;;;;;;40.10;11.83;;;;;;;-0.12;100.00;147416.41;5022898;28;20469;-64
2022/12/11 09:11:20;;;;;;;43.60;13.43;;;;;;;-0.11;100.00;147418.97;5024788;28;20075;-63
2022/12/11 09:13:46;;;;;;;41.50;12.57;;;;;;;0.00;100.00;147445.91;5024036;28;20029;-63
2022/12/11 09:16:14;;;;;;;45.77;14.23;;;;;;;-0.09;100.00;147422.81;5025176;28;20052;-63
2022/12/11 09:18:40;;;;;;;49.13;13.93;;;;;;;-0.37;100.00;147353.50;5024708;28;20040;-63
2022/12/11 09:21:09;;;;;;;51.20;15.73;;;;;;;-0.26;100.00;147380.44;5023095;28;20041;-63
2022/12/11 09:23:35;;;;;;;52.53;15.93;;;;;;;-0.17;100.00;147403.53;5020941;28;20393;-63
2022/12/11 09:26:04;;;;;;;44.50;13.37;;;;;;;-0.35;100.00;147357.38;5022059;28;20029;-63
2022/12/11 09:28:30;;;;;;;45.47;13.70;;;;;;;-0.35;100.00;147357.38;5020761;28;20112;-63
2022/12/11 09:30:55;;;;;;;47.47;14.70;;;;;;;-0.16;100.00;147406.09;5022702;28;20120;-63
2022/12/11 09:33:21;;;;;;;36.70;11.93;;;;;;;-0.27;100.00;147376.59;5016561;28;20029;-63
2022/12/11 09:35:58;;;;;;;40.03;11.53;;;;;;;-0.26;100.00;147379.16;5021605;28;20488;-64
2022/12/11 09:38:25;;;;;;;39.67;12.37;;;;;;;-0.35;100.00;147358.66;5023699;28;20465;-63
2022/12/11 09:40:50;;;;;;;40.77;12.40;;;;;;;-0.22;100.00;147390.72;5023611;28;20428;-63
2022/12/11 09:43:46;;;;;;;35.47;10.50;;;;;;;-0.22;100.00;147390.72;5021019;28;20044;-64
2022/12/11 09:46:14;;;;;;;40.83;11.00;;;;;;;-0.33;100.00;147363.78;5020853;28;20409;-63
2022/12/11 09:48:48;;;;;;;43.07;12.33;;;;;;;-0.23;100.00;147386.88;5020232;28;20025;-63
2022/12/11 09:51:20;;;;;;;36.47;11.90;;;;;;;-0.15;100.00;147408.66;5020715;28;20065;-63
2022/12/11 09:53:46;;;;;;;38.87;14.20;;;;;;;-0.35;100.00;147357.38;5020725;28;20029;-63
2022/12/11 09:56:11;;;;;;;38.83;12.47;;;;;;;-0.22;100.00;147389.44;5022049;28;20104;-63
2022/12/11 09:59:03;;;;;;;37.23;12.50;;;;;;;-0.30;100.00;147370.19;5022435;28;20060;-64
2022/12/11 10:01:41;;;;;;;37.30;11.90;;;;;;;-0.15;100.00;147407.38;5022274;28;20144;-63
2022/12/11 10:04:16;;;;;;;39.37;12.67;;;;;;;-0.18;100.00;147399.69;5018663;28;20026;-64
2022/12/11 10:06:51;;;;;;;38.30;12.60;;;;;;;-0.12;100.00;147416.41;5020934;28;20117;-63
2022/12/11 10:09:42;;;;;;;38.37;12.50;;;;;;;-0.25;100.00;147381.72;5027811;28;20033;-64
2022/12/11 10:12:16;;;;;;;34.70;11.57;;;;;;;-0.26;100.00;147380.44;5031087;28;20033;-63
2022/12/11 10:15:15;;;;;;;34.43;11.00;;;;;;;-0.35;100.00;147357.38;5030636;28;20021;-63
2022/12/11 10:17:43;;;;;;;39.10;13.57;;;;;;;-0.30;100.00;147370.19;5033328;28;20062;-64
2022/12/11 10:20:08;;;;;;;33.03;10.67;;;;;;;-0.32;100.00;147365.06;5029435;28;20078;-63
2022/12/11 10:22:34;;;;;;;35.47;11.80;;;;;;;-0.48;100.00;147324.06;5032327;28;20120;-63
2022/12/11 10:25:04;;;;;;;38.30;13.03;;;;;;;-0.40;100.00;147344.53;5026797;28;20064;-63
2022/12/11 10:27:32;;;;;;;39.43;13.30;;;;;;;-0.20;100.00;147395.84;5034611;28;20026;-63
2022/12/11 10:30:13;;;;;;;41.83;13.70;;;;;;;-0.08;100.00;147425.38;5032938;28;20040;-63
2022/12/11 10:32:47;;;;;;;36.33;13.37;;;;;;;-0.09;100.00;147424.09;5032492;28;20029;-63
2022/12/11 10:35:19;;;;;;;31.57;10.70;;;;;;;0.08;100.00;147465.13;5033629;28;20314;-63
2022/12/11 10:37:45;;;;;;;33.97;11.13;;;;;;;0.15;100.00;147483.09;5031725;28;20029;-63
2022/12/11 10:40:11;;;;;;;27.67;10.40;;;;;;;-0.15;100.00;147408.66;5033613;28;20040;-63
2022/12/11 10:42:37;;;;;;;25.50;9.60;;;;;;;-0.23;100.00;147388.16;5030092;28;20469;-63
2022/12/11 10:45:04;;;;;;;26.47;9.90;;;;;;;-0.13;100.00;147413.78;5032741;28;20029;-64
2022/12/11 10:47:32;;;;;;;24.93;8.67;;;;;;;0.04;100.00;147454.88;5033588;28;20098;-63
2022/12/11 10:50:00;;;;;;;24.93;9.50;;;;;;;-0.12;100.00;147416.41;5031272;28;20026;-63
2022/12/11 10:52:33;;;;;;;27.00;9.37;;;;;;;-0.01;100.00;147444.56;5033597;28;20017;-64
2022/12/11 10:55:21;;;;;;;28.90;10.07;;;;;;;-0.16;100.00;147406.09;5030013;28;20026;-64
2022/12/11 10:57:56;;;;;;;27.93;10.27;;;;;;;-0.06;100.00;147431.75;5030992;28;20538;-64
2022/12/11 11:00:38;;;;;;;29.47;11.30;;;;;;;0.07;100.00;147462.56;5031361;28;20054;-63
2022/12/11 11:03:17;;;;;;;31.70;10.23;;;;;;;0.18;100.00;147492.06;5032155;28;20537;-63
2022/12/11 11:05:42;;;;;;;26.90;10.60;;;;;;;0.04;100.00;147456.16;5032287;28;20385;-63
2022/12/11 11:08:14;;;;;;;31.30;12.07;;;;;;;0.04;100.00;147454.88;5029309;28;20018;-64
2022/12/11 11:11:20;;;;;;;29.23;11.30;;;;;;;-0.08;100.00;147426.66;5035284;28;20528;-63
2022/12/11 11:13:46;;;;;;;30.73;12.53;;;;;;;-0.13;100.00;147413.78;5019374;28;20378;-63
2022/12/11 11:16:16;;;;;;;29.53;12.17;;;;;;;-0.16;100.00;147404.81;5029566;28;20092;-63
2022/12/11 11:18:50;;;;;;;39.87;15.73;;;;;;;-0.02;100.00;147440.72;5015639;28;20032;-63
2022/12/11 11:21:18;;;;;;;30.07;11.60;;;;;;;0.00;100.00;147445.91;5022420;28;21529;-63